createdAt,value
2019-04-04T00:00:29.677Z,12.19
2019-04-04T00:01:29.662Z,12.16
2019-04-04T00:02:29.642Z,12.05
2019-04-04T00:03:29.619Z,12.04
2019-04-04T00:04:29.607Z,12.12
2019-04-04T00:05:29.581Z,12.01
2019-04-04T00:07:12.094Z,12.12
2019-04-04T00:08:12.076Z,12.13
2019-04-04T00:09:12.068Z,12.13
2019-04-04T00:10:12.036Z,12.10
2019-04-04T00:11:12.021Z,12.02
2019-04-04T00:12:11.999Z,12.04
2019-04-04T00:13:11.995Z,11.90
2019-04-04T00:14:13.044Z,12.05
2019-04-04T00:15:12.960Z,12.01
2019-04-04T00:16:11.933Z,11.95
2019-04-04T00:17:11.917Z,11.91
2019-04-04T00:18:11.893Z,11.90
2019-04-04T00:19:11.886Z,11.88
2019-04-04T00:20:11.873Z,11.83
2019-04-04T00:21:11.842Z,11.83
2019-04-04T00:22:11.822Z,11.90
2019-04-04T00:23:11.809Z,11.83
2019-04-04T00:24:11.781Z,11.80
2019-04-04T00:25:11.762Z,11.80
2019-04-04T00:26:11.747Z,11.82
2019-04-04T00:27:13.752Z,11.80
2019-04-04T00:28:12.964Z,11.82
2019-04-04T00:29:11.699Z,11.80
2019-04-04T00:30:11.673Z,11.76
2019-04-04T00:31:11.651Z,11.70
2019-04-04T00:32:11.638Z,11.76
2019-04-04T00:33:11.617Z,11.78
2019-04-04T00:34:13.715Z,11.76
2019-04-04T00:35:11.580Z,11.72
2019-04-04T00:36:11.563Z,11.64
2019-04-04T00:37:11.550Z,11.64
2019-04-04T00:38:11.527Z,11.73
2019-04-04T00:39:11.509Z,11.58
2019-04-04T00:40:11.845Z,11.69
2019-04-04T00:41:12.980Z,11.69
2019-04-04T00:42:11.451Z,11.57
2019-04-04T00:43:11.440Z,11.54
2019-04-04T00:44:11.415Z,11.57
2019-04-04T00:45:11.397Z,11.60
2019-04-04T00:46:11.377Z,11.61
2019-04-04T00:47:11.359Z,11.55
2019-04-04T00:48:11.343Z,11.52
2019-04-04T00:49:11.323Z,11.44
2019-04-04T00:50:11.304Z,11.55
2019-04-04T00:51:11.283Z,11.47
2019-04-04T00:52:11.265Z,11.51
2019-04-04T00:53:11.772Z,11.52
2019-04-04T00:54:13.712Z,11.47
2019-04-04T00:55:11.207Z,11.54
2019-04-04T00:56:11.189Z,11.46
2019-04-04T00:57:11.171Z,11.54
2019-04-04T00:58:11.152Z,11.57
2019-04-04T00:59:11.137Z,11.51
2019-04-04T01:00:11.115Z,11.47
2019-04-04T01:01:11.096Z,11.51
2019-04-04T01:02:11.077Z,11.51
2019-04-04T01:03:11.061Z,11.52
2019-04-04T01:04:11.046Z,11.37
2019-04-04T01:05:11.021Z,11.44
2019-04-04T01:06:11.013Z,11.47
2019-04-04T01:07:10.985Z,11.42
2019-04-04T01:08:10.967Z,11.43
2019-04-04T01:09:13.306Z,11.37
2019-04-04T01:10:10.926Z,11.43
2019-04-04T01:11:10.909Z,11.46
2019-04-04T01:12:10.893Z,11.36
2019-04-04T01:13:10.871Z,11.47
2019-04-04T01:14:10.854Z,11.35
2019-04-04T01:15:10.831Z,11.36
2019-04-04T01:16:10.817Z,11.35
2019-04-04T01:17:10.803Z,11.29
2019-04-04T01:18:10.779Z,11.32
2019-04-04T01:19:10.755Z,11.37
2019-04-04T01:20:10.737Z,11.36
2019-04-04T01:21:10.723Z,11.28
2019-04-04T01:22:10.703Z,11.35
2019-04-04T01:23:10.686Z,11.29
2019-04-04T01:24:10.663Z,11.25
2019-04-04T01:25:10.643Z,11.33
2019-04-04T01:26:10.627Z,11.21
2019-04-04T01:27:10.605Z,11.22
2019-04-04T01:28:10.583Z,11.24
2019-04-04T01:29:11.130Z,11.21
2019-04-04T01:30:12.580Z,11.22
2019-04-04T01:31:10.529Z,11.22
2019-04-04T01:32:10.510Z,11.24
2019-04-04T01:33:10.493Z,11.28
2019-04-04T01:34:10.475Z,11.21
2019-04-04T01:35:10.451Z,11.22
2019-04-04T01:36:10.445Z,11.32
2019-04-04T01:37:10.416Z,11.29
2019-04-04T01:38:10.397Z,11.27
2019-04-04T01:39:10.373Z,11.14
2019-04-04T01:40:10.370Z,11.15
2019-04-04T01:41:10.345Z,11.14
2019-04-04T01:42:10.327Z,11.14
2019-04-04T01:43:10.303Z,11.14
2019-04-04T01:44:11.371Z,11.09
2019-04-04T01:45:12.765Z,11.10
2019-04-04T01:46:10.248Z,11.14
2019-04-04T01:47:10.248Z,11.15
2019-04-04T01:48:10.210Z,11.09
2019-04-04T01:49:10.188Z,11.03
2019-04-04T01:50:10.171Z,10.99
2019-04-04T01:51:10.149Z,10.99
2019-04-04T01:52:10.131Z,10.91
2019-04-04T01:53:10.110Z,10.94
2019-04-04T01:54:10.088Z,10.92
2019-04-04T01:55:10.074Z,10.92
2019-04-04T01:56:10.056Z,10.96
2019-04-04T01:57:10.038Z,10.92
2019-04-04T01:58:10.732Z,10.89
2019-04-04T01:59:10.247Z,10.85
2019-04-04T02:00:09.978Z,10.88
2019-04-04T02:01:09.961Z,10.92
2019-04-04T02:02:09.936Z,10.94
2019-04-04T02:03:09.929Z,10.91
2019-04-04T02:04:09.900Z,10.82
2019-04-04T02:05:09.882Z,10.82
2019-04-04T02:06:09.866Z,10.78
2019-04-04T02:07:09.845Z,10.81
2019-04-04T02:08:09.820Z,10.76
2019-04-04T02:09:09.810Z,10.78
2019-04-04T02:10:09.782Z,10.73
2019-04-04T02:11:09.763Z,10.74
2019-04-04T02:12:09.744Z,10.84
2019-04-04T02:13:10.429Z,10.78
2019-04-04T02:14:11.547Z,10.81
2019-04-04T02:15:09.690Z,10.74
2019-04-04T02:16:09.703Z,10.76
2019-04-04T02:17:09.650Z,10.70
2019-04-04T02:18:09.631Z,10.76
2019-04-04T02:19:09.621Z,10.76
2019-04-04T02:20:09.590Z,10.66
2019-04-04T02:21:09.574Z,10.67
2019-04-04T02:22:09.552Z,10.66
2019-04-04T02:23:09.547Z,10.61
2019-04-04T02:24:09.518Z,10.64
2019-04-04T02:25:09.533Z,10.66
2019-04-04T02:26:09.474Z,10.66
2019-04-04T02:27:09.469Z,10.63
2019-04-04T02:28:09.612Z,10.56
2019-04-04T02:29:11.099Z,10.56
2019-04-04T02:30:14.640Z,10.53
2019-04-04T02:31:09.380Z,10.60
2019-04-04T02:32:09.389Z,10.59
2019-04-04T02:33:09.341Z,10.55
2019-04-04T02:34:09.325Z,10.42
2019-04-04T02:35:10.776Z,10.52
2019-04-04T02:36:09.285Z,10.40
2019-04-04T02:37:09.263Z,10.38
2019-04-04T02:38:09.240Z,10.38
2019-04-04T02:39:09.229Z,10.27
2019-04-04T02:40:10.067Z,10.34
2019-04-04T02:41:09.185Z,10.29
2019-04-04T02:42:09.168Z,10.27
2019-04-04T02:43:09.155Z,10.25
2019-04-04T02:44:09.124Z,10.26
2019-04-04T02:45:09.135Z,10.17
2019-04-04T02:46:11.570Z,10.32
2019-04-04T02:47:09.067Z,10.22
2019-04-04T02:48:09.048Z,10.14
2019-04-04T02:49:09.036Z,10.14
2019-04-04T02:50:09.018Z,10.09
2019-04-04T02:51:08.993Z,9.97
2019-04-04T02:52:12.807Z,10.01
2019-04-04T02:53:08.953Z,9.94
2019-04-04T02:54:08.934Z,9.90
2019-04-04T02:55:08.913Z,9.87
2019-04-04T02:56:08.901Z,9.90
2019-04-04T02:57:09.641Z,9.90
2019-04-04T02:58:08.850Z,9.90
2019-04-04T02:59:08.836Z,9.90
2019-04-04T03:00:08.811Z,9.84
2019-04-04T03:01:08.793Z,9.89
2019-04-04T03:02:08.774Z,9.90
2019-04-04T03:03:09.465Z,9.84
2019-04-04T03:04:08.737Z,9.89
2019-04-04T03:05:08.717Z,9.87
2019-04-04T03:06:08.695Z,9.79
2019-04-04T03:07:08.675Z,9.76
2019-04-04T03:08:08.658Z,9.83
2019-04-04T03:09:09.946Z,9.75
2019-04-04T03:10:08.619Z,9.74
2019-04-04T03:11:08.599Z,9.68
2019-04-04T03:12:08.584Z,9.65
2019-04-04T03:13:08.569Z,9.68
2019-04-04T03:14:08.543Z,9.66
2019-04-04T03:15:09.234Z,9.72
2019-04-04T03:16:08.507Z,9.83
2019-04-04T03:17:08.486Z,9.79
2019-04-04T03:18:08.477Z,9.86
2019-04-04T03:19:11.063Z,9.90
2019-04-04T03:20:08.420Z,9.81
2019-04-04T03:21:08.402Z,9.90
2019-04-04T03:22:08.386Z,9.87
2019-04-04T03:23:08.374Z,9.93
2019-04-04T03:24:08.361Z,9.81
2019-04-04T03:25:08.334Z,9.84
2019-04-04T03:26:08.305Z,9.89
2019-04-04T03:27:08.282Z,9.90
2019-04-04T03:28:08.271Z,9.91
2019-04-04T03:29:10.465Z,9.94
2019-04-04T03:30:13.398Z,9.90
2019-04-04T03:31:08.203Z,9.84
2019-04-04T03:32:13.384Z,9.84
2019-04-04T03:33:08.198Z,9.90
2019-04-04T03:34:11.026Z,9.79
2019-04-04T03:35:08.154Z,9.79
2019-04-04T03:36:08.136Z,9.81
2019-04-04T03:37:12.132Z,9.76
2019-04-04T03:38:08.079Z,9.83
2019-04-04T03:39:08.050Z,9.75
2019-04-04T03:40:08.028Z,9.71
2019-04-04T03:41:08.009Z,9.66
2019-04-04T03:42:08.335Z,9.71
2019-04-04T03:43:07.969Z,9.66
2019-04-04T03:44:07.949Z,9.66
2019-04-04T03:45:07.929Z,9.71
2019-04-04T03:46:07.910Z,9.66
2019-04-04T03:47:10.400Z,9.69
2019-04-04T03:48:07.867Z,9.68
2019-04-04T03:49:07.854Z,9.66
2019-04-04T03:50:07.827Z,9.68
2019-04-04T03:51:07.802Z,9.65
2019-04-04T03:52:11.224Z,9.68
2019-04-04T03:53:07.863Z,9.78
2019-04-04T03:54:07.744Z,9.79
2019-04-04T03:55:07.725Z,9.79
2019-04-04T03:56:07.707Z,9.81
2019-04-04T03:57:10.951Z,9.76
2019-04-04T03:58:07.668Z,9.65
2019-04-04T03:59:07.659Z,9.66
2019-04-04T04:00:07.729Z,9.66
2019-04-04T04:01:11.945Z,9.64
2019-04-04T04:02:07.591Z,9.65
2019-04-04T04:03:07.566Z,9.66
2019-04-04T04:04:07.543Z,9.64
2019-04-04T04:05:07.530Z,9.51
2019-04-04T04:06:08.873Z,9.57
2019-04-04T04:07:07.485Z,9.53
2019-04-04T04:08:07.475Z,9.53
2019-04-04T04:09:07.448Z,9.51
2019-04-04T04:10:07.423Z,9.56
2019-04-04T04:11:07.407Z,9.48
2019-04-04T04:12:10.170Z,9.42
2019-04-04T04:13:07.378Z,9.39
2019-04-04T04:14:07.349Z,9.42
2019-04-04T04:15:07.328Z,9.42
2019-04-04T04:16:07.306Z,9.36
2019-04-04T04:17:11.273Z,9.39
2019-04-04T04:18:07.277Z,9.33
2019-04-04T04:19:07.258Z,9.33
2019-04-04T04:20:07.232Z,9.39
2019-04-04T04:21:10.801Z,9.38
2019-04-04T04:22:07.183Z,9.36
2019-04-04T04:23:07.161Z,9.32
2019-04-04T04:24:07.148Z,9.35
2019-04-04T04:25:07.124Z,9.35
2019-04-04T04:26:09.448Z,9.31
2019-04-04T04:27:07.089Z,9.29
2019-04-04T04:28:07.068Z,9.31
2019-04-04T04:29:07.052Z,9.35
2019-04-04T04:30:07.674Z,9.26
2019-04-04T04:31:07.016Z,9.32
2019-04-04T04:32:06.983Z,9.36
2019-04-04T04:33:06.964Z,9.38
2019-04-04T04:34:06.948Z,9.31
2019-04-04T04:35:08.584Z,9.29
2019-04-04T04:36:09.743Z,9.28
2019-04-04T04:37:06.910Z,9.23
2019-04-04T04:38:06.861Z,9.28
2019-04-04T04:39:06.851Z,9.26
2019-04-04T04:40:06.827Z,9.23
2019-04-04T04:41:06.808Z,9.21
2019-04-04T04:42:06.782Z,9.20
2019-04-04T04:43:06.773Z,9.20
2019-04-04T04:44:06.822Z,9.24
2019-04-04T04:45:10.874Z,9.23
2019-04-04T04:46:06.716Z,9.21
2019-04-04T04:47:06.678Z,9.17
2019-04-04T04:48:06.666Z,9.24
2019-04-04T04:49:06.652Z,9.21
2019-04-04T04:50:09.638Z,9.20
2019-04-04T04:51:06.602Z,9.21
2019-04-04T04:52:06.576Z,9.20
2019-04-04T04:53:06.560Z,9.20
2019-04-04T04:54:06.540Z,9.20
2019-04-04T04:55:06.540Z,9.21
2019-04-04T04:56:06.498Z,9.21
2019-04-04T04:57:06.475Z,9.20
2019-04-04T04:58:09.968Z,9.24
2019-04-04T04:59:06.445Z,9.17
2019-04-04T05:00:06.412Z,9.21
2019-04-04T05:01:06.396Z,9.21
2019-04-04T05:02:06.377Z,9.20
2019-04-04T05:03:06.354Z,9.21
2019-04-04T05:04:06.337Z,9.17
2019-04-04T05:05:06.316Z,9.24
2019-04-04T05:06:06.300Z,9.20
2019-04-04T05:07:07.433Z,9.18
2019-04-04T05:08:09.473Z,9.21
2019-04-04T05:09:06.235Z,9.20
2019-04-04T05:10:06.214Z,9.20
2019-04-04T05:11:06.194Z,9.23
2019-04-04T05:12:06.176Z,9.24
2019-04-04T05:13:06.161Z,9.28
2019-04-04T05:14:06.131Z,9.26
2019-04-04T05:15:06.106Z,9.18
2019-04-04T05:16:08.902Z,9.18
2019-04-04T05:17:06.068Z,9.28
2019-04-04T05:18:06.051Z,9.28
2019-04-04T05:19:06.029Z,9.20
2019-04-04T05:20:06.012Z,9.20
2019-04-04T05:21:06.005Z,9.28
2019-04-04T05:22:07.141Z,9.21
2019-04-04T05:23:05.948Z,9.31
2019-04-04T05:24:05.931Z,9.35
2019-04-04T05:25:08.255Z,9.36
2019-04-04T05:26:05.886Z,9.38
2019-04-04T05:27:06.698Z,9.36
2019-04-04T05:28:06.345Z,9.33
2019-04-04T05:29:05.839Z,9.40
2019-04-04T05:30:08.336Z,9.43
2019-04-04T05:31:05.788Z,9.43
2019-04-04T05:32:05.764Z,9.48
2019-04-04T05:33:05.742Z,9.50
2019-04-04T05:34:05.724Z,9.53
2019-04-04T05:35:05.704Z,9.53
2019-04-04T05:36:06.058Z,9.61
2019-04-04T05:37:07.359Z,9.54
2019-04-04T05:38:07.733Z,9.58
2019-04-04T05:39:05.623Z,9.53
2019-04-04T05:40:05.627Z,9.61
2019-04-04T05:41:05.596Z,9.66
2019-04-04T05:42:05.565Z,9.66
2019-04-04T05:43:05.548Z,9.66
2019-04-04T05:44:09.044Z,9.65
2019-04-04T05:45:05.510Z,9.86
2019-04-04T05:46:05.507Z,9.84
2019-04-04T05:47:05.463Z,9.84
2019-04-04T05:48:05.441Z,9.87
2019-04-04T05:49:07.798Z,9.83
2019-04-04T05:50:05.401Z,9.89
2019-04-04T05:51:05.699Z,9.89
2019-04-04T05:53:52.654Z,10.05
2019-04-04T06:04:42.460Z,10.52
2019-04-04T06:05:42.444Z,10.53
2019-04-04T06:06:42.435Z,10.63
2019-04-04T06:07:42.422Z,10.64
2019-04-04T06:08:43.333Z,10.73
2019-04-04T06:09:46.095Z,10.73
2019-04-04T06:10:42.334Z,10.88
2019-04-04T06:11:42.314Z,10.88
2019-04-04T06:12:42.292Z,10.89
2019-04-04T06:13:42.269Z,10.89
2019-04-04T06:14:42.255Z,10.99
2019-04-04T06:15:42.238Z,11.17
2019-04-04T06:16:42.213Z,11.21
2019-04-04T06:17:42.195Z,11.24
2019-04-04T06:18:42.969Z,11.32
2019-04-04T06:19:44.417Z,11.39
2019-04-04T06:20:42.134Z,11.47
2019-04-04T06:21:42.127Z,11.52
2019-04-04T06:22:42.095Z,11.65
2019-04-04T06:23:42.071Z,11.70
2019-04-04T06:24:42.055Z,11.76
2019-04-04T06:25:42.051Z,11.75
2019-04-04T06:26:42.016Z,11.86
2019-04-04T06:27:41.993Z,11.90
2019-04-04T06:28:44.207Z,12.04
2019-04-04T06:29:41.957Z,12.05
2019-04-04T06:30:43.433Z,12.17
2019-04-04T06:31:41.920Z,12.17
2019-04-04T06:32:41.902Z,12.24
2019-04-04T06:33:41.879Z,12.45
2019-04-04T06:34:42.181Z,12.52
2019-04-04T06:35:41.841Z,12.57
2019-04-04T06:36:41.822Z,12.62
2019-04-04T06:37:41.799Z,12.70
2019-04-04T06:38:44.404Z,12.79
2019-04-04T06:39:41.769Z,12.74
2019-04-04T06:40:41.749Z,12.83
2019-04-04T06:41:41.736Z,12.92
2019-04-04T06:42:41.710Z,13.12
2019-04-04T06:43:42.074Z,13.14
2019-04-04T06:44:43.787Z,13.17
2019-04-04T06:45:41.661Z,13.48
2019-04-04T06:46:41.639Z,13.73
2019-04-04T06:47:41.620Z,13.96
2019-04-04T06:48:41.593Z,14.33
2019-04-04T06:49:41.572Z,14.55
2019-04-04T06:50:42.965Z,14.95
2019-04-04T06:51:41.541Z,15.14
2019-04-04T06:52:41.520Z,15.36
2019-04-04T06:53:41.502Z,15.54
2019-04-04T06:54:41.490Z,15.84
2019-04-04T06:55:41.477Z,16.17
2019-04-04T06:56:41.452Z,16.07
2019-04-04T06:57:41.435Z,16.17
2019-04-04T06:58:41.421Z,16.11
2019-04-04T06:59:43.266Z,16.17
2019-04-04T07:00:42.201Z,16.07
2019-04-04T07:01:41.363Z,16.05
2019-04-04T07:02:41.348Z,15.94
2019-04-04T07:03:41.336Z,15.96
2019-04-04T07:04:44.952Z,15.84
2019-04-04T07:05:41.301Z,15.74
2019-04-04T07:06:41.961Z,15.49
2019-04-04T07:07:43.884Z,15.51
2019-04-04T07:08:41.252Z,15.49
2019-04-04T07:09:41.242Z,15.46
2019-04-04T07:10:41.224Z,15.36
2019-04-04T07:11:41.209Z,15.27
2019-04-04T07:12:41.193Z,15.35
2019-04-04T07:13:42.606Z,15.25
2019-04-04T07:14:46.020Z,15.23
2019-04-04T07:15:46.559Z,15.36
2019-04-04T07:16:41.170Z,15.47
2019-04-04T07:17:41.282Z,15.57
2019-04-04T07:18:43.062Z,15.67
2019-04-04T07:19:41.093Z,15.67
2019-04-04T07:20:41.074Z,15.57
2019-04-04T07:21:41.060Z,15.56
2019-04-04T07:22:41.043Z,15.67
2019-04-04T07:23:41.977Z,15.59
2019-04-04T07:24:41.021Z,15.51
2019-04-04T07:25:40.999Z,15.56
2019-04-04T07:26:40.989Z,15.67
2019-04-04T07:27:40.976Z,15.59
2019-04-04T07:28:40.965Z,15.60
2019-04-04T07:29:40.942Z,15.67
2019-04-04T07:30:40.933Z,15.69
2019-04-04T07:31:40.916Z,15.89
2019-04-04T07:32:41.693Z,15.90
2019-04-04T07:33:42.670Z,16.01
2019-04-04T07:34:40.869Z,16.11
2019-04-04T07:35:40.853Z,16.17
2019-04-04T07:36:40.845Z,16.34
2019-04-04T07:37:40.825Z,16.45
2019-04-04T07:38:40.810Z,16.67
2019-04-04T07:39:40.795Z,16.88
2019-04-04T07:40:40.788Z,17.08
2019-04-04T07:41:44.757Z,17.08
2019-04-04T07:42:40.753Z,17.38
2019-04-04T07:43:40.737Z,17.62
2019-04-04T07:44:40.723Z,17.75
2019-04-04T07:45:40.713Z,17.87
2019-04-04T07:46:41.301Z,18.27
2019-04-04T07:47:40.683Z,18.73
2019-04-04T07:48:40.668Z,18.92
2019-04-04T07:49:40.661Z,19.13
2019-04-04T07:50:40.640Z,19.39
2019-04-04T07:51:40.662Z,19.59
2019-04-04T07:52:40.618Z,20.01
2019-04-04T07:53:40.600Z,20.06
2019-04-04T07:54:40.586Z,20.23
2019-04-04T07:55:42.188Z,20.11
2019-04-04T07:56:40.561Z,19.88
2019-04-04T07:57:40.548Z,19.76
2019-04-04T07:58:40.537Z,19.39
2019-04-04T07:59:40.526Z,19.54
2019-04-04T08:00:40.513Z,20.06
2019-04-04T08:01:50.643Z,20.48
2019-04-04T08:02:40.490Z,20.94
2019-04-04T08:03:40.475Z,21.13
2019-04-04T08:04:40.461Z,20.82
2019-04-04T08:05:40.453Z,20.80
2019-04-04T08:06:40.450Z,20.77
2019-04-04T08:07:40.426Z,20.95
2019-04-04T08:08:40.412Z,21.07
2019-04-04T08:09:40.404Z,20.89
2019-04-04T08:10:40.399Z,20.87
2019-04-04T08:11:40.384Z,20.66
2019-04-04T08:12:40.370Z,20.80
2019-04-04T08:13:40.361Z,20.58
2019-04-04T08:14:40.347Z,20.39
2019-04-04T08:15:40.342Z,20.10
2019-04-04T08:16:40.325Z,19.99
2019-04-04T08:17:40.314Z,20.02
2019-04-04T08:18:40.303Z,20.24
2019-04-04T08:19:40.297Z,20.32
2019-04-04T08:20:40.280Z,19.99
2019-04-04T08:21:40.271Z,19.62
2019-04-04T08:22:40.264Z,19.69
2019-04-04T08:23:40.249Z,19.68
2019-04-04T08:24:40.239Z,20.03
2019-04-04T08:25:40.225Z,20.58
2019-04-04T08:26:40.221Z,20.97
2019-04-04T08:27:40.208Z,21.14
2019-04-04T08:28:40.199Z,21.31
2019-04-04T08:29:40.187Z,21.43
2019-04-04T08:30:40.178Z,21.59
2019-04-04T08:31:40.169Z,21.84
2019-04-04T08:32:40.165Z,21.61
2019-04-04T08:33:40.403Z,21.67
2019-04-04T08:34:40.136Z,22.07
2019-04-04T08:35:40.123Z,22.36
2019-04-04T08:36:40.118Z,22.49
2019-04-04T08:37:40.105Z,23.07
2019-04-04T08:38:40.094Z,23.46
2019-04-04T08:39:40.088Z,23.61
2019-04-04T08:40:40.074Z,24.05
2019-04-04T08:41:40.069Z,24.12
2019-04-04T08:42:40.067Z,24.15
2019-04-04T08:43:40.044Z,24.28
2019-04-04T08:44:40.038Z,24.53
2019-04-04T08:45:40.032Z,24.76
2019-04-04T08:46:40.017Z,24.64
2019-04-04T08:47:40.007Z,24.61
2019-04-04T08:48:39.998Z,24.40
2019-04-04T08:49:39.985Z,24.45
2019-04-04T08:50:39.990Z,24.37
2019-04-04T08:51:39.972Z,24.49
2019-04-04T08:52:39.960Z,24.85
2019-04-04T08:53:40.595Z,25.03
2019-04-04T08:54:39.945Z,25.10
2019-04-04T08:55:39.933Z,25.27
2019-04-04T08:56:39.927Z,25.57
2019-04-04T08:57:39.920Z,25.32
2019-04-04T08:58:39.906Z,25.40
2019-04-04T08:59:39.896Z,25.39
2019-04-04T09:00:39.888Z,25.14
2019-04-04T09:01:39.879Z,25.27
2019-04-04T09:02:39.868Z,25.45
2019-04-04T09:03:39.871Z,25.38
2019-04-04T09:04:39.854Z,25.17
2019-04-04T09:05:39.845Z,24.99
2019-04-04T09:06:39.835Z,25.06
2019-04-04T09:07:39.834Z,25.05
2019-04-04T09:08:39.882Z,25.09
2019-04-04T09:09:39.898Z,25.18
2019-04-04T09:10:39.800Z,25.43
2019-04-04T09:11:39.790Z,25.52
2019-04-04T09:12:39.788Z,25.87
2019-04-04T09:13:39.778Z,25.39
2019-04-04T09:14:41.183Z,25.21
2019-04-04T09:15:39.756Z,25.06
2019-04-04T09:16:39.749Z,25.15
2019-04-04T09:17:39.740Z,25.02
2019-04-04T09:18:39.730Z,25.05
2019-04-04T09:19:39.735Z,24.88
2019-04-04T09:20:39.714Z,24.78
2019-04-04T09:21:39.717Z,24.68
2019-04-04T09:22:40.909Z,24.57
2019-04-04T09:23:39.687Z,24.37
2019-04-04T09:24:39.694Z,24.52
2019-04-04T09:25:40.977Z,24.69
2019-04-04T09:26:39.668Z,24.52
2019-04-04T09:27:39.657Z,24.78
2019-04-04T09:28:39.650Z,24.62
2019-04-04T09:29:39.636Z,24.50
2019-04-04T09:30:39.636Z,24.24
2019-04-04T09:31:39.623Z,24.32
2019-04-04T09:32:39.615Z,24.28
2019-04-04T09:33:39.608Z,24.25
2019-04-04T09:34:39.603Z,24.34
2019-04-04T09:35:39.594Z,24.47
2019-04-04T09:36:39.587Z,24.55
2019-04-04T09:37:39.572Z,24.55
2019-04-04T09:38:39.568Z,24.77
2019-04-04T09:39:39.560Z,24.87
2019-04-04T09:40:39.548Z,24.67
2019-04-04T09:41:39.541Z,24.58
2019-04-04T09:42:39.536Z,24.31
2019-04-04T09:43:39.526Z,24.16
2019-04-04T09:44:39.514Z,24.24
2019-04-04T09:45:39.512Z,24.18
2019-04-04T09:46:39.500Z,24.09
2019-04-04T09:47:39.499Z,24.15
2019-04-04T09:48:39.492Z,24.08
2019-04-04T09:49:39.480Z,24.24
2019-04-04T09:50:39.472Z,24.47
2019-04-04T09:51:39.467Z,24.25
2019-04-04T09:52:39.459Z,23.97
2019-04-04T09:53:52.389Z,23.94
2019-04-04T09:54:39.448Z,24.00
2019-04-04T09:55:39.443Z,24.03
2019-04-04T09:56:39.435Z,23.93
2019-04-04T09:57:39.425Z,24.05
2019-04-04T09:58:39.423Z,24.15
2019-04-04T09:59:39.415Z,24.24
2019-04-04T10:00:39.407Z,24.50
2019-04-04T10:01:39.403Z,24.84
2019-04-04T10:02:39.392Z,24.90
2019-04-04T10:03:39.391Z,24.93
2019-04-04T10:04:39.386Z,24.88
2019-04-04T10:05:39.380Z,24.80
2019-04-04T10:06:39.373Z,24.61
2019-04-04T10:07:39.374Z,24.85
2019-04-04T10:08:39.362Z,24.88
2019-04-04T10:09:39.505Z,25.17
2019-04-04T10:10:39.355Z,25.28
2019-04-04T10:11:39.351Z,25.54
2019-04-04T10:12:39.342Z,25.72
2019-04-04T10:13:39.365Z,25.95
2019-04-04T10:14:39.330Z,26.28
2019-04-04T10:15:39.326Z,26.66
2019-04-04T10:16:39.324Z,26.91
2019-04-04T10:17:39.330Z,26.82
2019-04-04T10:18:39.312Z,26.76
2019-04-04T10:19:39.308Z,26.51
2019-04-04T10:20:39.306Z,26.30
2019-04-04T10:21:39.311Z,26.26
2019-04-04T10:22:39.306Z,26.63
2019-04-04T10:23:39.303Z,26.89
2019-04-04T10:24:39.291Z,27.22
2019-04-04T10:25:39.336Z,27.57
2019-04-04T10:26:39.285Z,27.69
2019-04-04T10:27:39.288Z,27.82
2019-04-04T10:28:39.278Z,28.14
2019-04-04T10:29:39.273Z,28.24
2019-04-04T10:30:39.269Z,28.15
2019-04-04T10:31:39.266Z,27.84
2019-04-04T10:32:39.304Z,27.41
2019-04-04T10:33:42.098Z,27.28
2019-04-04T10:34:39.264Z,27.51
2019-04-04T10:35:39.253Z,27.82
2019-04-04T10:36:39.254Z,28.12
2019-04-04T10:37:39.250Z,27.92
2019-04-04T10:38:39.245Z,27.55
2019-04-04T10:39:39.243Z,27.19
2019-04-04T10:40:39.240Z,27.25
2019-04-04T10:41:39.233Z,27.43
2019-04-04T10:42:39.231Z,27.59
2019-04-04T10:43:39.227Z,28.07
2019-04-04T10:44:39.229Z,28.18
2019-04-04T10:45:39.218Z,28.06
2019-04-04T10:46:39.220Z,28.18
2019-04-04T10:47:39.215Z,28.70
2019-04-04T10:48:39.212Z,28.98
2019-04-04T10:49:39.218Z,29.06
2019-04-04T10:50:39.209Z,29.21
2019-04-04T10:51:39.204Z,29.28
2019-04-04T10:52:39.198Z,29.05
2019-04-04T10:53:39.202Z,29.36
2019-04-04T10:54:39.197Z,29.79
2019-04-04T10:55:39.199Z,30.01
2019-04-04T10:56:39.193Z,30.27
2019-04-04T10:57:39.190Z,30.69
2019-04-04T10:58:39.192Z,31.36
2019-04-04T10:59:39.181Z,32.18
2019-04-04T11:00:39.182Z,32.59
2019-04-04T11:01:39.179Z,32.97
2019-04-04T11:02:39.179Z,32.84
2019-04-04T11:03:39.180Z,32.44
2019-04-04T11:04:39.172Z,32.01
2019-04-04T11:05:39.170Z,31.44
2019-04-04T11:06:39.171Z,31.09
2019-04-04T11:07:39.167Z,30.62
2019-04-04T11:08:39.171Z,30.42
2019-04-04T11:09:42.089Z,30.08
2019-04-04T11:10:39.169Z,29.61
2019-04-04T11:11:39.163Z,29.74
2019-04-04T11:12:39.162Z,29.71
2019-04-04T11:13:39.162Z,29.65
2019-04-04T11:14:39.158Z,29.48
2019-04-04T11:15:39.155Z,29.55
2019-04-04T11:16:39.160Z,30.04
2019-04-04T11:17:39.154Z,30.19
2019-04-04T11:18:39.154Z,30.38
2019-04-04T11:19:39.151Z,30.01
2019-04-04T11:20:39.157Z,29.85
2019-04-04T11:21:39.151Z,30.02
2019-04-04T11:22:39.149Z,29.36
2019-04-04T11:23:39.143Z,29.33
2019-04-04T11:24:39.146Z,29.37
2019-04-04T11:25:39.141Z,28.95
2019-04-04T11:26:39.146Z,28.93
2019-04-04T11:27:39.142Z,29.02
2019-04-04T11:28:39.135Z,29.41
2019-04-04T11:29:39.140Z,29.73
2019-04-04T11:30:39.134Z,30.15
2019-04-04T11:31:39.134Z,30.29
2019-04-04T11:32:39.137Z,30.24
2019-04-04T11:33:39.131Z,30.11
2019-04-04T11:34:39.127Z,30.27
2019-04-04T11:35:39.132Z,30.37
2019-04-04T11:36:39.126Z,30.04
2019-04-04T11:37:39.127Z,30.00
2019-04-04T11:38:39.122Z,29.58
2019-04-04T11:39:39.124Z,29.36
2019-04-04T11:40:39.128Z,29.58
2019-04-04T11:41:39.122Z,29.94
2019-04-04T11:42:39.169Z,29.46
2019-04-04T11:43:39.117Z,29.39
2019-04-04T11:44:39.119Z,29.33
2019-04-04T11:45:39.117Z,29.41
2019-04-04T11:46:39.115Z,29.68
2019-04-04T11:47:39.111Z,29.65
2019-04-04T11:48:39.112Z,29.70
2019-04-04T11:49:39.107Z,29.65
2019-04-04T11:50:39.945Z,29.67
2019-04-04T11:51:39.113Z,29.76
2019-04-04T11:52:39.107Z,29.98
2019-04-04T11:53:39.109Z,30.07
2019-04-04T11:54:39.101Z,30.01
2019-04-04T11:55:39.104Z,30.51
2019-04-04T11:56:39.104Z,30.29
2019-04-04T11:57:39.101Z,30.15
2019-04-04T11:58:39.100Z,30.27
2019-04-04T11:59:39.103Z,30.37
2019-04-04T12:00:39.098Z,30.29
2019-04-04T12:01:39.095Z,30.39
2019-04-04T12:02:39.092Z,30.75
2019-04-04T12:03:39.095Z,30.88
2019-04-04T12:04:39.092Z,31.09
2019-04-04T12:05:39.089Z,31.13
2019-04-04T12:06:39.086Z,30.94
2019-04-04T12:07:39.100Z,30.42
2019-04-04T12:08:39.107Z,30.45
2019-04-04T12:09:39.089Z,30.61
2019-04-04T12:10:39.087Z,30.42
2019-04-04T12:11:39.086Z,29.60
2019-04-04T12:12:39.085Z,29.30
2019-04-04T12:13:39.089Z,29.42
2019-04-04T12:14:39.080Z,29.30
2019-04-04T12:15:39.085Z,29.31
2019-04-04T12:16:39.082Z,29.05
2019-04-04T12:17:39.082Z,28.41
2019-04-04T12:20:22.364Z,28.31
2019-04-04T12:21:22.364Z,28.67
2019-04-04T12:22:22.369Z,28.98
2019-04-04T12:23:22.367Z,29.31
2019-04-04T12:24:22.365Z,29.68
2019-04-04T12:25:22.364Z,30.01
2019-04-04T12:26:22.363Z,30.08
2019-04-04T12:27:22.364Z,30.04
2019-04-04T12:28:22.359Z,29.79
2019-04-04T12:29:22.357Z,29.26
2019-04-04T12:30:22.363Z,29.30
2019-04-04T12:31:22.358Z,29.55
2019-04-04T12:32:22.354Z,30.04
2019-04-04T12:33:22.348Z,30.01
2019-04-04T12:34:22.351Z,30.11
2019-04-04T12:35:22.350Z,30.24
2019-04-04T12:36:24.924Z,29.92
2019-04-04T12:37:22.349Z,29.67
2019-04-04T12:38:22.350Z,29.30
2019-04-04T12:39:22.343Z,29.28
2019-04-04T12:40:22.340Z,29.23
2019-04-04T12:41:22.342Z,28.90
2019-04-04T12:42:22.344Z,28.62
2019-04-04T12:43:22.338Z,28.48
2019-04-04T12:44:22.340Z,28.41
2019-04-04T12:45:22.336Z,28.95
2019-04-04T12:46:22.344Z,29.46
2019-04-04T12:47:22.337Z,29.23
2019-04-04T12:48:22.336Z,29.65
2019-04-04T12:49:22.328Z,29.79
2019-04-04T12:50:22.329Z,28.98
2019-04-04T12:51:22.333Z,28.86
2019-04-04T12:52:22.320Z,28.85
2019-04-04T12:53:22.323Z,28.62
2019-04-04T12:54:22.319Z,28.03
2019-04-04T12:55:22.316Z,27.06
2019-04-04T12:56:22.322Z,26.47
2019-04-04T12:57:22.308Z,26.43
2019-04-04T12:58:22.308Z,26.30
2019-04-04T12:59:22.309Z,25.99
2019-04-04T13:00:22.304Z,25.57
2019-04-04T13:01:22.298Z,25.38
2019-04-04T13:02:22.906Z,25.39
2019-04-04T13:03:22.675Z,25.36
2019-04-04T13:04:31.001Z,25.20
2019-04-04T13:05:22.294Z,25.08
2019-04-04T13:06:22.285Z,25.14
2019-04-04T13:07:22.278Z,25.03
2019-04-04T13:08:22.276Z,24.84
2019-04-04T13:09:22.273Z,24.52
2019-04-04T13:10:32.531Z,24.34
2019-04-04T13:11:22.265Z,24.30
2019-04-04T13:12:22.259Z,24.37